sensor_id;sensor_type;location;lat;lon;timestamp;P1;durP1;ratioP1;P2;durP2;ratioP2
14118;SDS011;7138;49.246;9.100;2023-02-04T00:00:00;12.52;;;5.47;;
14118;SDS011;7138;49.246;9.100;2023-02-04T00:02:27;11.18;;;6.22;;
14118;SDS011;7138;49.246;9.100;2023-02-04T00:04:52;8.77;;;5.85;;
14118;SDS011;7138;49.246;9.100;2023-02-04T00:07:18;9.40;;;5.53;;
14118;SDS011;7138;49.246;9.100;2023-02-04T00:09:44;9.90;;;6.18;;
14118;SDS011;7138;49.246;9.100;2023-02-04T00:12:12;10.40;;;5.88;;
14118;SDS011;7138;49.246;9.100;2023-02-04T00:14:38;9.70;;;6.05;;
14118;SDS011;7138;49.246;9.100;2023-02-04T00:17:04;8.27;;;5.40;;
14118;SDS011;7138;49.246;9.100;2023-02-04T00:19:32;9.55;;;6.30;;
14118;SDS011;7138;49.246;9.100;2023-02-04T00:21:57;10.40;;;6.18;;
14118;SDS011;7138;49.246;9.100;2023-02-04T00:24:23;8.25;;;5.18;;
14118;SDS011;7138;49.246;9.100;2023-02-04T00:26:49;8.93;;;4.57;;
14118;SDS011;7138;49.246;9.100;2023-02-04T00:29:16;12.70;;;5.18;;
14118;SDS011;7138;49.246;9.100;2023-02-04T00:31:42;10.25;;;4.57;;
14118;SDS011;7138;49.246;9.100;2023-02-04T00:34:08;8.88;;;4.22;;
14118;SDS011;7138;49.246;9.100;2023-02-04T00:36:33;8.98;;;5.00;;
14118;SDS011;7138;49.246;9.100;2023-02-04T00:38:59;7.65;;;4.28;;
14118;SDS011;7138;49.246;9.100;2023-02-04T00:41:25;8.77;;;4.78;;
14118;SDS011;7138;49.246;9.100;2023-02-04T00:43:51;8.13;;;3.92;;
14118;SDS011;7138;49.246;9.100;2023-02-04T00:46:18;7.78;;;3.83;;
14118;SDS011;7138;49.246;9.100;2023-02-04T00:48:44;8.30;;;3.83;;
14118;SDS011;7138;49.246;9.100;2023-02-04T00:51:09;8.88;;;3.58;;
14118;SDS011;7138;49.246;9.100;2023-02-04T00:53:35;8.60;;;3.67;;
14118;SDS011;7138;49.246;9.100;2023-02-04T00:56:01;11.93;;;3.88;;
14118;SDS011;7138;49.246;9.100;2023-02-04T00:58:27;10.88;;;3.92;;
14118;SDS011;7138;49.246;9.100;2023-02-04T01:00:53;9.35;;;3.50;;
14118;SDS011;7138;49.246;9.100;2023-02-04T01:03:20;9.25;;;3.40;;
14118;SDS011;7138;49.246;9.100;2023-02-04T01:05:46;9.55;;;3.15;;
14118;SDS011;7138;49.246;9.100;2023-02-04T01:08:11;11.73;;;4.10;;
14118;SDS011;7138;49.246;9.100;2023-02-04T01:10:37;10.70;;;3.30;;
14118;SDS011;7138;49.246;9.100;2023-02-04T01:13:03;7.68;;;2.85;;
14118;SDS011;7138;49.246;9.100;2023-02-04T01:15:29;8.77;;;3.10;;
14118;SDS011;7138;49.246;9.100;2023-02-04T01:17:55;6.13;;;3.22;;
14118;SDS011;7138;49.246;9.100;2023-02-04T01:20:22;9.43;;;3.10;;
14118;SDS011;7138;49.246;9.100;2023-02-04T01:22:48;8.77;;;3.17;;
14118;SDS011;7138;49.246;9.100;2023-02-04T01:25:14;9.60;;;3.00;;
14118;SDS011;7138;49.246;9.100;2023-02-04T01:27:40;8.80;;;2.95;;
14118;SDS011;7138;49.246;9.100;2023-02-04T01:30:07;7.97;;;2.70;;
14118;SDS011;7138;49.246;9.100;2023-02-04T01:32:35;9.00;;;3.17;;
14118;SDS011;7138;49.246;9.100;2023-02-04T01:35:01;7.50;;;2.92;;
14118;SDS011;7138;49.246;9.100;2023-02-04T01:37:28;7.93;;;2.97;;
14118;SDS011;7138;49.246;9.100;2023-02-04T01:39:57;9.90;;;2.67;;
14118;SDS011;7138;49.246;9.100;2023-02-04T01:42:23;9.45;;;2.50;;
14118;SDS011;7138;49.246;9.100;2023-02-04T01:44:49;13.77;;;2.95;;
14118;SDS011;7138;49.246;9.100;2023-02-04T01:47:16;8.25;;;3.22;;
14118;SDS011;7138;49.246;9.100;2023-02-04T01:49:43;11.48;;;2.72;;
14118;SDS011;7138;49.246;9.100;2023-02-04T01:52:13;7.78;;;2.45;;
14118;SDS011;7138;49.246;9.100;2023-02-04T01:54:41;10.55;;;2.45;;
14118;SDS011;7138;49.246;9.100;2023-02-04T01:57:08;10.02;;;2.97;;
14118;SDS011;7138;49.246;9.100;2023-02-04T01:59:39;9.55;;;2.00;;
14118;SDS011;7138;49.246;9.100;2023-02-04T02:05:07;13.50;;;2.80;;
14118;SDS011;7138;49.246;9.100;2023-02-04T02:07:37;9.82;;;2.60;;
14118;SDS011;7138;49.246;9.100;2023-02-04T02:10:05;14.88;;;2.40;;
14118;SDS011;7138;49.246;9.100;2023-02-04T02:12:34;10.38;;;2.20;;
14118;SDS011;7138;49.246;9.100;2023-02-04T02:15:01;11.45;;;2.20;;
14118;SDS011;7138;49.246;9.100;2023-02-04T02:17:27;12.38;;;2.42;;
14118;SDS011;7138;49.246;9.100;2023-02-04T02:19:53;12.75;;;2.22;;
14118;SDS011;7138;49.246;9.100;2023-02-04T02:22:20;11.98;;;2.45;;
14118;SDS011;7138;49.246;9.100;2023-02-04T02:24:55;14.13;;;2.80;;
14118;SDS011;7138;49.246;9.100;2023-02-04T02:27:20;11.02;;;2.33;;
14118;SDS011;7138;49.246;9.100;2023-02-04T02:29:47;12.63;;;2.40;;
14118;SDS011;7138;49.246;9.100;2023-02-04T02:32:14;13.38;;;2.67;;
14118;SDS011;7138;49.246;9.100;2023-02-04T02:34:40;10.07;;;2.78;;
14118;SDS011;7138;49.246;9.100;2023-02-04T02:37:08;9.98;;;2.47;;
14118;SDS011;7138;49.246;9.100;2023-02-04T02:39:34;10.93;;;2.22;;
14118;SDS011;7138;49.246;9.100;2023-02-04T02:42:04;10.30;;;1.90;;
14118;SDS011;7138;49.246;9.100;2023-02-04T02:44:30;14.93;;;2.50;;
14118;SDS011;7138;49.246;9.100;2023-02-04T02:46:57;14.82;;;2.65;;
14118;SDS011;7138;49.246;9.100;2023-02-04T02:49:24;13.45;;;2.25;;
14118;SDS011;7138;49.246;9.100;2023-02-04T02:51:52;12.05;;;2.20;;
14118;SDS011;7138;49.246;9.100;2023-02-04T02:54:20;13.35;;;2.30;;
14118;SDS011;7138;49.246;9.100;2023-02-04T02:56:50;14.50;;;2.70;;
14118;SDS011;7138;49.246;9.100;2023-02-04T02:59:19;8.00;;;2.15;;
14118;SDS011;7138;49.246;9.100;2023-02-04T03:01:45;17.75;;;2.85;;
14118;SDS011;7138;49.246;9.100;2023-02-04T03:04:15;12.35;;;2.25;;
14118;SDS011;7138;49.246;9.100;2023-02-04T03:06:44;16.75;;;2.63;;
14118;SDS011;7138;49.246;9.100;2023-02-04T03:09:10;15.25;;;2.90;;
14118;SDS011;7138;49.246;9.100;2023-02-04T03:11:36;12.55;;;2.47;;
14118;SDS011;7138;49.246;9.100;2023-02-04T03:14:02;15.48;;;3.35;;
14118;SDS011;7138;49.246;9.100;2023-02-04T03:16:30;11.98;;;2.35;;
14118;SDS011;7138;49.246;9.100;2023-02-04T03:18:58;13.63;;;2.10;;
14118;SDS011;7138;49.246;9.100;2023-02-04T03:21:25;8.45;;;2.30;;
14118;SDS011;7138;49.246;9.100;2023-02-04T03:23:52;10.68;;;2.72;;
14118;SDS011;7138;49.246;9.100;2023-02-04T03:26:22;15.30;;;2.38;;
14118;SDS011;7138;49.246;9.100;2023-02-04T03:28:49;13.88;;;2.55;;
14118;SDS011;7138;49.246;9.100;2023-02-04T03:31:18;9.30;;;2.50;;
14118;SDS011;7138;49.246;9.100;2023-02-04T03:33:45;11.13;;;2.28;;
14118;SDS011;7138;49.246;9.100;2023-02-04T03:36:11;13.43;;;2.40;;
14118;SDS011;7138;49.246;9.100;2023-02-04T03:38:37;9.88;;;2.10;;
14118;SDS011;7138;49.246;9.100;2023-02-04T03:41:03;12.73;;;2.78;;
14118;SDS011;7138;49.246;9.100;2023-02-04T03:43:29;10.60;;;2.20;;
14118;SDS011;7138;49.246;9.100;2023-02-04T03:45:55;11.35;;;2.33;;
14118;SDS011;7138;49.246;9.100;2023-02-04T03:48:21;12.32;;;2.33;;
14118;SDS011;7138;49.246;9.100;2023-02-04T03:50:48;12.80;;;2.63;;
14118;SDS011;7138;49.246;9.100;2023-02-04T03:53:14;13.40;;;2.97;;
14118;SDS011;7138;49.246;9.100;2023-02-04T03:55:40;11.70;;;2.35;;
14118;SDS011;7138;49.246;9.100;2023-02-04T03:58:06;18.30;;;3.75;;
14118;SDS011;7138;49.246;9.100;2023-02-04T04:00:31;10.75;;;2.60;;
14118;SDS011;7138;49.246;9.100;2023-02-04T04:02:57;13.00;;;2.70;;
14118;SDS011;7138;49.246;9.100;2023-02-04T04:05:24;15.63;;;2.40;;
14118;SDS011;7138;49.246;9.100;2023-02-04T04:07:53;17.42;;;2.80;;
14118;SDS011;7138;49.246;9.100;2023-02-04T04:10:19;20.85;;;2.75;;
14118;SDS011;7138;49.246;9.100;2023-02-04T04:12:44;13.30;;;2.58;;
14118;SDS011;7138;49.246;9.100;2023-02-04T04:15:10;11.10;;;2.65;;
14118;SDS011;7138;49.246;9.100;2023-02-04T04:17:36;7.57;;;2.42;;
14118;SDS011;7138;49.246;9.100;2023-02-04T04:20:02;11.32;;;2.38;;
14118;SDS011;7138;49.246;9.100;2023-02-04T04:22:30;13.93;;;3.17;;
14118;SDS011;7138;49.246;9.100;2023-02-04T04:24:57;8.57;;;2.58;;
14118;SDS011;7138;49.246;9.100;2023-02-04T04:27:23;13.25;;;3.63;;
14118;SDS011;7138;49.246;9.100;2023-02-04T04:29:49;17.45;;;2.92;;
14118;SDS011;7138;49.246;9.100;2023-02-04T04:32:15;14.65;;;2.53;;
14118;SDS011;7138;49.246;9.100;2023-02-04T04:34:41;13.52;;;3.00;;
14118;SDS011;7138;49.246;9.100;2023-02-04T04:37:07;14.65;;;3.15;;
14118;SDS011;7138;49.246;9.100;2023-02-04T04:39:33;10.95;;;2.90;;
14118;SDS011;7138;49.246;9.100;2023-02-04T04:42:00;25.23;;;3.00;;
14118;SDS011;7138;49.246;9.100;2023-02-04T04:44:26;11.48;;;2.88;;
14118;SDS011;7138;49.246;9.100;2023-02-04T04:46:52;12.98;;;2.90;;
14118;SDS011;7138;49.246;9.100;2023-02-04T04:49:17;17.77;;;3.78;;
14118;SDS011;7138;49.246;9.100;2023-02-04T04:51:44;16.00;;;3.00;;
14118;SDS011;7138;49.246;9.100;2023-02-04T04:54:10;13.13;;;2.90;;
14118;SDS011;7138;49.246;9.100;2023-02-04T04:56:36;21.40;;;3.78;;
14118;SDS011;7138;49.246;9.100;2023-02-04T04:59:03;11.75;;;2.80;;
14118;SDS011;7138;49.246;9.100;2023-02-04T05:01:29;16.33;;;3.13;;
14118;SDS011;7138;49.246;9.100;2023-02-04T05:03:55;12.88;;;3.78;;
14118;SDS011;7138;49.246;9.100;2023-02-04T05:06:20;18.15;;;3.17;;
14118;SDS011;7138;49.246;9.100;2023-02-04T05:08:49;13.75;;;3.28;;
14118;SDS011;7138;49.246;9.100;2023-02-04T05:11:15;11.60;;;3.17;;
14118;SDS011;7138;49.246;9.100;2023-02-04T05:13:41;16.70;;;3.10;;
14118;SDS011;7138;49.246;9.100;2023-02-04T05:16:08;18.00;;;3.50;;
14118;SDS011;7138;49.246;9.100;2023-02-04T05:18:37;12.65;;;3.20;;
14118;SDS011;7138;49.246;9.100;2023-02-04T05:21:04;11.02;;;3.10;;
14118;SDS011;7138;49.246;9.100;2023-02-04T05:23:30;15.48;;;3.53;;
14118;SDS011;7138;49.246;9.100;2023-02-04T05:25:56;16.40;;;3.00;;
14118;SDS011;7138;49.246;9.100;2023-02-04T05:28:22;14.82;;;3.65;;
14118;SDS011;7138;49.246;9.100;2023-02-04T05:30:48;16.17;;;3.38;;
14118;SDS011;7138;49.246;9.100;2023-02-04T05:33:15;16.35;;;3.45;;
14118;SDS011;7138;49.246;9.100;2023-02-04T05:35:41;12.77;;;3.35;;
14118;SDS011;7138;49.246;9.100;2023-02-04T05:38:07;15.32;;;3.10;;
14118;SDS011;7138;49.246;9.100;2023-02-04T05:40:33;16.35;;;3.33;;
14118;SDS011;7138;49.246;9.100;2023-02-04T05:42:59;11.88;;;3.30;;
14118;SDS011;7138;49.246;9.100;2023-02-04T05:45:25;16.77;;;5.05;;
14118;SDS011;7138;49.246;9.100;2023-02-04T05:47:51;11.07;;;3.33;;
14118;SDS011;7138;49.246;9.100;2023-02-04T05:50:18;15.15;;;2.95;;
14118;SDS011;7138;49.246;9.100;2023-02-04T05:52:44;15.52;;;3.65;;
14118;SDS011;7138;49.246;9.100;2023-02-04T05:55:10;13.23;;;3.60;;
14118;SDS011;7138;49.246;9.100;2023-02-04T05:57:37;11.82;;;2.95;;
14118;SDS011;7138;49.246;9.100;2023-02-04T06:00:04;13.38;;;3.63;;
14118;SDS011;7138;49.246;9.100;2023-02-04T06:02:31;16.52;;;3.58;;
14118;SDS011;7138;49.246;9.100;2023-02-04T06:04:57;16.13;;;4.82;;
14118;SDS011;7138;49.246;9.100;2023-02-04T06:07:25;15.65;;;4.45;;
14118;SDS011;7138;49.246;9.100;2023-02-04T06:09:51;13.98;;;3.20;;
14118;SDS011;7138;49.246;9.100;2023-02-04T06:12:17;11.73;;;3.28;;
14118;SDS011;7138;49.246;9.100;2023-02-04T06:14:42;12.13;;;3.00;;
14118;SDS011;7138;49.246;9.100;2023-02-04T06:17:08;13.55;;;2.88;;
14118;SDS011;7138;49.246;9.100;2023-02-04T06:19:34;10.90;;;2.65;;
14118;SDS011;7138;49.246;9.100;2023-02-04T06:22:00;17.25;;;3.25;;
14118;SDS011;7138;49.246;9.100;2023-02-04T06:24:27;12.20;;;3.08;;
14118;SDS011;7138;49.246;9.100;2023-02-04T06:26:53;13.00;;;2.45;;
14118;SDS011;7138;49.246;9.100;2023-02-04T06:29:19;12.18;;;2.67;;
14118;SDS011;7138;49.246;9.100;2023-02-04T06:31:45;8.68;;;2.30;;
14118;SDS011;7138;49.246;9.100;2023-02-04T06:34:12;16.67;;;2.90;;
14118;SDS011;7138;49.246;9.100;2023-02-04T06:36:38;17.50;;;3.30;;
14118;SDS011;7138;49.246;9.100;2023-02-04T06:39:04;13.65;;;3.13;;
14118;SDS011;7138;49.246;9.100;2023-02-04T06:41:31;13.38;;;2.53;;
14118;SDS011;7138;49.246;9.100;2023-02-04T06:43:57;15.48;;;2.83;;
14118;SDS011;7138;49.246;9.100;2023-02-04T06:46:23;17.30;;;3.20;;
14118;SDS011;7138;49.246;9.100;2023-02-04T06:48:49;15.82;;;2.78;;
14118;SDS011;7138;49.246;9.100;2023-02-04T06:51:14;16.63;;;2.63;;
14118;SDS011;7138;49.246;9.100;2023-02-04T06:53:40;15.35;;;2.90;;
14118;SDS011;7138;49.246;9.100;2023-02-04T06:56:09;18.50;;;3.38;;
14118;SDS011;7138;49.246;9.100;2023-02-04T06:58:36;11.90;;;2.38;;
14118;SDS011;7138;49.246;9.100;2023-02-04T07:01:02;12.95;;;3.20;;
14118;SDS011;7138;49.246;9.100;2023-02-04T07:03:30;20.67;;;3.00;;
14118;SDS011;7138;49.246;9.100;2023-02-04T07:05:56;18.38;;;3.97;;
14118;SDS011;7138;49.246;9.100;2023-02-04T07:08:22;14.02;;;3.25;;
14118;SDS011;7138;49.246;9.100;2023-02-04T07:10:48;11.65;;;2.63;;
14118;SDS011;7138;49.246;9.100;2023-02-04T07:13:13;14.30;;;2.58;;
14118;SDS011;7138;49.246;9.100;2023-02-04T07:15:40;15.90;;;2.80;;
14118;SDS011;7138;49.246;9.100;2023-02-04T07:18:06;17.83;;;3.28;;
14118;SDS011;7138;49.246;9.100;2023-02-04T07:20:32;14.50;;;2.83;;
14118;SDS011;7138;49.246;9.100;2023-02-04T07:22:58;12.60;;;3.17;;
14118;SDS011;7138;49.246;9.100;2023-02-04T07:25:24;17.98;;;2.80;;
14118;SDS011;7138;49.246;9.100;2023-02-04T07:27:50;16.02;;;3.03;;
14118;SDS011;7138;49.246;9.100;2023-02-04T07:30:16;16.75;;;2.90;;
14118;SDS011;7138;49.246;9.100;2023-02-04T07:32:43;15.23;;;3.05;;
14118;SDS011;7138;49.246;9.100;2023-02-04T07:35:09;13.30;;;2.83;;
14118;SDS011;7138;49.246;9.100;2023-02-04T07:37:36;18.52;;;3.22;;
14118;SDS011;7138;49.246;9.100;2023-02-04T07:40:02;17.23;;;3.33;;
14118;SDS011;7138;49.246;9.100;2023-02-04T07:42:29;19.02;;;2.70;;
14118;SDS011;7138;49.246;9.100;2023-02-04T07:44:55;20.23;;;3.33;;
14118;SDS011;7138;49.246;9.100;2023-02-04T07:47:21;22.08;;;3.17;;
14118;SDS011;7138;49.246;9.100;2023-02-04T07:49:48;14.73;;;2.92;;
14118;SDS011;7138;49.246;9.100;2023-02-04T07:52:14;14.10;;;3.97;;
14118;SDS011;7138;49.246;9.100;2023-02-04T07:54:40;17.88;;;3.22;;
14118;SDS011;7138;49.246;9.100;2023-02-04T07:57:06;16.63;;;3.05;;
14118;SDS011;7138;49.246;9.100;2023-02-04T07:59:32;12.65;;;2.35;;
14118;SDS011;7138;49.246;9.100;2023-02-04T08:01:58;22.48;;;3.60;;
14118;SDS011;7138;49.246;9.100;2023-02-04T08:04:25;19.55;;;3.10;;
14118;SDS011;7138;49.246;9.100;2023-02-04T08:06:53;16.48;;;2.80;;
14118;SDS011;7138;49.246;9.100;2023-02-04T08:09:19;20.67;;;2.97;;
14118;SDS011;7138;49.246;9.100;2023-02-04T08:11:45;15.25;;;3.67;;
14118;SDS011;7138;49.246;9.100;2023-02-04T08:14:11;18.38;;;3.60;;
14118;SDS011;7138;49.246;9.100;2023-02-04T08:16:37;14.18;;;3.05;;
14118;SDS011;7138;49.246;9.100;2023-02-04T08:19:03;14.25;;;2.60;;
14118;SDS011;7138;49.246;9.100;2023-02-04T08:21:29;13.15;;;2.75;;
14118;SDS011;7138;49.246;9.100;2023-02-04T08:23:56;14.25;;;2.85;;
14118;SDS011;7138;49.246;9.100;2023-02-04T08:26:22;16.20;;;2.50;;
14118;SDS011;7138;49.246;9.100;2023-02-04T08:28:48;15.32;;;2.90;;
14118;SDS011;7138;49.246;9.100;2023-02-04T08:31:14;14.98;;;2.90;;
14118;SDS011;7138;49.246;9.100;2023-02-04T08:33:40;17.25;;;2.80;;
14118;SDS011;7138;49.246;9.100;2023-02-04T08:36:06;16.05;;;3.00;;
14118;SDS011;7138;49.246;9.100;2023-02-04T08:38:32;12.50;;;3.20;;
14118;SDS011;7138;49.246;9.100;2023-02-04T08:40:59;16.02;;;3.17;;
14118;SDS011;7138;49.246;9.100;2023-02-04T08:43:25;16.10;;;2.95;;
14118;SDS011;7138;49.246;9.100;2023-02-04T08:45:51;9.00;;;2.65;;
14118;SDS011;7138;49.246;9.100;2023-02-04T08:48:17;14.40;;;2.90;;
14118;SDS011;7138;49.246;9.100;2023-02-04T08:50:43;15.90;;;3.30;;
14118;SDS011;7138;49.246;9.100;2023-02-04T08:53:09;16.88;;;3.13;;
14118;SDS011;7138;49.246;9.100;2023-02-04T08:55:35;17.67;;;3.05;;
14118;SDS011;7138;49.246;9.100;2023-02-04T08:58:02;12.45;;;3.10;;
14118;SDS011;7138;49.246;9.100;2023-02-04T09:00:27;12.77;;;3.20;;
14118;SDS011;7138;49.246;9.100;2023-02-04T09:02:54;15.27;;;3.35;;
14118;SDS011;7138;49.246;9.100;2023-02-04T09:05:20;18.67;;;3.92;;
14118;SDS011;7138;49.246;9.100;2023-02-04T09:07:46;14.88;;;3.42;;
14118;SDS011;7138;49.246;9.100;2023-02-04T09:10:12;19.25;;;3.20;;
14118;SDS011;7138;49.246;9.100;2023-02-04T09:12:38;17.50;;;2.78;;
14118;SDS011;7138;49.246;9.100;2023-02-04T09:15:05;19.85;;;4.10;;
14118;SDS011;7138;49.246;9.100;2023-02-04T09:17:34;16.77;;;3.17;;
14118;SDS011;7138;49.246;9.100;2023-02-04T09:20:01;18.30;;;2.88;;
14118;SDS011;7138;49.246;9.100;2023-02-04T09:22:27;15.75;;;2.80;;
14118;SDS011;7138;49.246;9.100;2023-02-04T09:24:53;17.35;;;4.00;;
14118;SDS011;7138;49.246;9.100;2023-02-04T09:27:20;19.85;;;3.35;;
14118;SDS011;7138;49.246;9.100;2023-02-04T09:29:46;16.60;;;3.25;;
14118;SDS011;7138;49.246;9.100;2023-02-04T09:32:13;18.00;;;3.03;;
14118;SDS011;7138;49.246;9.100;2023-02-04T09:34:38;16.08;;;3.65;;
14118;SDS011;7138;49.246;9.100;2023-02-04T09:37:04;16.77;;;3.10;;
14118;SDS011;7138;49.246;9.100;2023-02-04T09:39:30;19.45;;;3.05;;
14118;SDS011;7138;49.246;9.100;2023-02-04T09:41:57;15.57;;;2.63;;
14118;SDS011;7138;49.246;9.100;2023-02-04T09:44:23;17.13;;;2.92;;
14118;SDS011;7138;49.246;9.100;2023-02-04T09:46:54;16.45;;;3.03;;
14118;SDS011;7138;49.246;9.100;2023-02-04T09:49:24;19.95;;;3.50;;
14118;SDS011;7138;49.246;9.100;2023-02-04T09:51:51;16.83;;;4.25;;
14118;SDS011;7138;49.246;9.100;2023-02-04T09:54:20;14.85;;;2.95;;
14118;SDS011;7138;49.246;9.100;2023-02-04T09:56:47;17.63;;;2.95;;
14118;SDS011;7138;49.246;9.100;2023-02-04T09:59:15;15.52;;;2.92;;
14118;SDS011;7138;49.246;9.100;2023-02-04T10:01:44;18.35;;;3.00;;
14118;SDS011;7138;49.246;9.100;2023-02-04T10:04:15;20.52;;;3.03;;
14118;SDS011;7138;49.246;9.100;2023-02-04T10:06:48;19.20;;;3.28;;
14118;SDS011;7138;49.246;9.100;2023-02-04T10:09:14;15.63;;;2.58;;
14118;SDS011;7138;49.246;9.100;2023-02-04T10:11:41;19.80;;;3.10;;
14118;SDS011;7138;49.246;9.100;2023-02-04T10:16:42;13.48;;;2.80;;
14118;SDS011;7138;49.246;9.100;2023-02-04T10:19:16;22.02;;;3.20;;
14118;SDS011;7138;49.246;9.100;2023-02-04T10:21:43;26.70;;;3.67;;
14118;SDS011;7138;49.246;9.100;2023-02-04T10:24:14;12.67;;;2.30;;
14118;SDS011;7138;49.246;9.100;2023-02-04T10:26:42;20.85;;;3.38;;
14118;SDS011;7138;49.246;9.100;2023-02-04T10:29:11;16.45;;;4.07;;
14118;SDS011;7138;49.246;9.100;2023-02-04T10:31:40;18.17;;;3.20;;
14118;SDS011;7138;49.246;9.100;2023-02-04T10:34:09;17.35;;;2.63;;
14118;SDS011;7138;49.246;9.100;2023-02-04T10:36:38;19.45;;;2.88;;
14118;SDS011;7138;49.246;9.100;2023-02-04T10:39:09;14.98;;;2.55;;
14118;SDS011;7138;49.246;9.100;2023-02-04T10:41:43;13.02;;;2.33;;
14118;SDS011;7138;49.246;9.100;2023-02-04T10:44:13;10.50;;;2.50;;
14118;SDS011;7138;49.246;9.100;2023-02-04T10:46:41;17.17;;;3.70;;
14118;SDS011;7138;49.246;9.100;2023-02-04T10:49:15;17.70;;;2.80;;
14118;SDS011;7138;49.246;9.100;2023-02-04T10:51:44;14.13;;;2.53;;
14118;SDS011;7138;49.246;9.100;2023-02-04T10:54:13;14.48;;;2.70;;
14118;SDS011;7138;49.246;9.100;2023-02-04T10:56:54;16.30;;;3.10;;
14118;SDS011;7138;49.246;9.100;2023-02-04T10:59:23;11.55;;;2.05;;
14118;SDS011;7138;49.246;9.100;2023-02-04T11:01:51;17.63;;;3.85;;
14118;SDS011;7138;49.246;9.100;2023-02-04T11:04:19;10.27;;;2.33;;
14118;SDS011;7138;49.246;9.100;2023-02-04T11:06:45;12.85;;;2.55;;
14118;SDS011;7138;49.246;9.100;2023-02-04T11:09:12;15.10;;;2.67;;
14118;SDS011;7138;49.246;9.100;2023-02-04T11:11:43;13.95;;;2.00;;
14118;SDS011;7138;49.246;9.100;2023-02-04T11:14:20;13.93;;;2.45;;
14118;SDS011;7138;49.246;9.100;2023-02-04T11:16:49;17.60;;;2.50;;
14118;SDS011;7138;49.246;9.100;2023-02-04T11:19:28;15.75;;;2.50;;
14118;SDS011;7138;49.246;9.100;2023-02-04T11:22:03;11.70;;;2.55;;
14118;SDS011;7138;49.246;9.100;2023-02-04T11:24:48;19.05;;;4.07;;
14118;SDS011;7138;49.246;9.100;2023-02-04T11:27:22;18.27;;;2.70;;
14118;SDS011;7138;49.246;9.100;2023-02-04T11:30:03;10.05;;;2.40;;
14118;SDS011;7138;49.246;9.100;2023-02-04T11:32:43;13.52;;;2.20;;
14118;SDS011;7138;49.246;9.100;2023-02-04T11:35:24;11.57;;;2.45;;
14118;SDS011;7138;49.246;9.100;2023-02-04T11:37:53;8.80;;;1.83;;
14118;SDS011;7138;49.246;9.100;2023-02-04T11:40:24;9.25;;;2.40;;
14118;SDS011;7138;49.246;9.100;2023-02-04T11:42:56;9.73;;;1.73;;
14118;SDS011;7138;49.246;9.100;2023-02-04T11:45:25;10.43;;;1.83;;
14118;SDS011;7138;49.246;9.100;2023-02-04T11:47:58;11.27;;;3.13;;
14118;SDS011;7138;49.246;9.100;2023-02-04T11:50:28;10.05;;;1.70;;
14118;SDS011;7138;49.246;9.100;2023-02-04T11:52:56;7.47;;;1.80;;
14118;SDS011;7138;49.246;9.100;2023-02-04T11:55:27;7.82;;;2.40;;
14118;SDS011;7138;49.246;9.100;2023-02-04T11:57:55;8.13;;;1.40;;
14118;SDS011;7138;49.246;9.100;2023-02-04T12:00:22;8.98;;;1.23;;
14118;SDS011;7138;49.246;9.100;2023-02-04T12:02:56;6.78;;;1.30;;
14118;SDS011;7138;49.246;9.100;2023-02-04T12:05:33;8.77;;;1.45;;
14118;SDS011;7138;49.246;9.100;2023-02-04T12:08:08;10.13;;;1.35;;
14118;SDS011;7138;49.246;9.100;2023-02-04T12:10:38;11.23;;;2.70;;
14118;SDS011;7138;49.246;9.100;2023-02-04T12:13:15;11.40;;;1.60;;
14118;SDS011;7138;49.246;9.100;2023-02-04T12:15:43;8.27;;;1.45;;
14118;SDS011;7138;49.246;9.100;2023-02-04T12:18:19;9.88;;;1.63;;
14118;SDS011;7138;49.246;9.100;2023-02-04T12:20:45;7.15;;;1.60;;
14118;SDS011;7138;49.246;9.100;2023-02-04T12:23:11;9.75;;;1.65;;
14118;SDS011;7138;49.246;9.100;2023-02-04T12:25:37;12.40;;;1.80;;
14118;SDS011;7138;49.246;9.100;2023-02-04T12:28:04;9.23;;;1.90;;
14118;SDS011;7138;49.246;9.100;2023-02-04T12:30:30;14.52;;;2.13;;
14118;SDS011;7138;49.246;9.100;2023-02-04T12:32:56;14.15;;;2.50;;
14118;SDS011;7138;49.246;9.100;2023-02-04T12:35:22;9.75;;;1.63;;
14118;SDS011;7138;49.246;9.100;2023-02-04T12:37:47;9.45;;;2.28;;
14118;SDS011;7138;49.246;9.100;2023-02-04T12:40:13;14.88;;;2.00;;
14118;SDS011;7138;49.246;9.100;2023-02-04T12:42:42;12.85;;;1.88;;
14118;SDS011;7138;49.246;9.100;2023-02-04T12:45:09;12.20;;;1.67;;
14118;SDS011;7138;49.246;9.100;2023-02-04T12:47:37;10.85;;;1.80;;
14118;SDS011;7138;49.246;9.100;2023-02-04T12:50:03;15.20;;;2.10;;
14118;SDS011;7138;49.246;9.100;2023-02-04T12:52:32;12.00;;;2.00;;
14118;SDS011;7138;49.246;9.100;2023-02-04T12:54:58;9.90;;;1.88;;
14118;SDS011;7138;49.246;9.100;2023-02-04T12:57:25;10.85;;;2.03;;
14118;SDS011;7138;49.246;9.100;2023-02-04T12:59:52;14.43;;;2.40;;
14118;SDS011;7138;49.246;9.100;2023-02-04T13:02:21;11.98;;;1.73;;
14118;SDS011;7138;49.246;9.100;2023-02-04T13:04:47;9.73;;;1.80;;
14118;SDS011;7138;49.246;9.100;2023-02-04T13:07:13;12.10;;;1.73;;
14118;SDS011;7138;49.246;9.100;2023-02-04T13:09:39;13.55;;;2.65;;
14118;SDS011;7138;49.246;9.100;2023-02-04T13:12:04;12.88;;;2.60;;
14118;SDS011;7138;49.246;9.100;2023-02-04T13:14:31;12.38;;;1.67;;
14118;SDS011;7138;49.246;9.100;2023-02-04T13:16:58;8.32;;;1.85;;
14118;SDS011;7138;49.246;9.100;2023-02-04T13:19:24;9.63;;;1.63;;
14118;SDS011;7138;49.246;9.100;2023-02-04T13:21:50;10.02;;;1.65;;
14118;SDS011;7138;49.246;9.100;2023-02-04T13:24:15;10.52;;;1.63;;
14118;SDS011;7138;49.246;9.100;2023-02-04T13:26:41;11.52;;;1.90;;
14118;SDS011;7138;49.246;9.100;2023-02-04T13:29:07;10.93;;;2.42;;
14118;SDS011;7138;49.246;9.100;2023-02-04T13:31:33;11.32;;;2.10;;
14118;SDS011;7138;49.246;9.100;2023-02-04T13:34:00;11.77;;;2.45;;
14118;SDS011;7138;49.246;9.100;2023-02-04T13:36:26;11.00;;;1.70;;
14118;SDS011;7138;49.246;9.100;2023-02-04T13:38:54;10.13;;;1.77;;
14118;SDS011;7138;49.246;9.100;2023-02-04T13:41:20;10.80;;;2.10;;
14118;SDS011;7138;49.246;9.100;2023-02-04T13:43:46;10.15;;;1.83;;
14118;SDS011;7138;49.246;9.100;2023-02-04T13:46:12;10.57;;;1.95;;
14118;SDS011;7138;49.246;9.100;2023-02-04T13:48:38;8.48;;;1.90;;
14118;SDS011;7138;49.246;9.100;2023-02-04T13:51:05;9.93;;;1.90;;
14118;SDS011;7138;49.246;9.100;2023-02-04T13:53:31;10.30;;;2.97;;
14118;SDS011;7138;49.246;9.100;2023-02-04T13:55:57;10.02;;;2.78;;
14118;SDS011;7138;49.246;9.100;2023-02-04T13:58:23;11.07;;;2.72;;
14118;SDS011;7138;49.246;9.100;2023-02-04T14:00:49;12.27;;;2.95;;
14118;SDS011;7138;49.246;9.100;2023-02-04T14:03:15;13.18;;;2.28;;
14118;SDS011;7138;49.246;9.100;2023-02-04T14:05:41;8.88;;;1.73;;
14118;SDS011;7138;49.246;9.100;2023-02-04T14:08:08;9.73;;;1.67;;
14118;SDS011;7138;49.246;9.100;2023-02-04T14:10:33;9.95;;;2.03;;
14118;SDS011;7138;49.246;9.100;2023-02-04T14:12:59;6.45;;;1.60;;
14118;SDS011;7138;49.246;9.100;2023-02-04T14:15:25;8.65;;;1.83;;
14118;SDS011;7138;49.246;9.100;2023-02-04T14:17:51;9.73;;;1.73;;
14118;SDS011;7138;49.246;9.100;2023-02-04T14:20:17;6.25;;;1.67;;
14118;SDS011;7138;49.246;9.100;2023-02-04T14:22:43;11.63;;;1.90;;
14118;SDS011;7138;49.246;9.100;2023-02-04T14:25:13;11.23;;;1.55;;
14118;SDS011;7138;49.246;9.100;2023-02-04T14:27:39;9.10;;;1.67;;
14118;SDS011;7138;49.246;9.100;2023-02-04T14:30:06;9.65;;;1.90;;
14118;SDS011;7138;49.246;9.100;2023-02-04T14:32:40;10.80;;;2.13;;
14118;SDS011;7138;49.246;9.100;2023-02-04T14:35:06;11.73;;;2.20;;
14118;SDS011;7138;49.246;9.100;2023-02-04T14:37:32;7.57;;;1.70;;
14118;SDS011;7138;49.246;9.100;2023-02-04T14:39:58;12.88;;;2.40;;
14118;SDS011;7138;49.246;9.100;2023-02-04T14:42:25;9.38;;;1.80;;
14118;SDS011;7138;49.246;9.100;2023-02-04T14:44:51;8.57;;;1.95;;
14118;SDS011;7138;49.246;9.100;2023-02-04T14:47:17;10.27;;;2.13;;
14118;SDS011;7138;49.246;9.100;2023-02-04T14:49:43;8.80;;;1.45;;
14118;SDS011;7138;49.246;9.100;2023-02-04T14:52:08;9.05;;;1.67;;
14118;SDS011;7138;49.246;9.100;2023-02-04T14:54:36;8.15;;;1.60;;